CFG227 EVRA-EDDH
Flight info
| Callsign | CFG227 |
|---|---|
| Flight time | 1h 23m |
| Altitude | 38000 |
| Route | VALED DCT ADAXA DCT NINTA DCT BAGOS N850 BOGMU BOGMU3P |
| Aircraft | A321/M-SDE3FGHIRWY/LB1 |
Departure
| Time | 2026-04-26 16:07 |
|---|---|
| Airport | Riga International Airport (EVRA) |
Arrival
| Time | 2026-04-26 17:31 |
|---|---|
| Airport | Hamburg Helmut Schmidt Airport (EDDH) |
| Time | Latitude | Longitude | Altitude | Speed | Heading |
|---|---|---|---|---|---|
| 2026-04-26 15:37 | 56.92295 | 23.97676 | 41 ft | 0 kts | 185° |
| 2026-04-26 15:59 | 56.92297 | 23.97677 | 43 ft | 2 kts | 185° |
| 2026-04-26 16:00 | 56.92320 | 23.97680 | 41 ft | 3 kts | 185° |
| 2026-04-26 16:00 | 56.92345 | 23.97685 | 40 ft | 3 kts | 188° |
| 2026-04-26 16:00 | 56.92365 | 23.97692 | 40 ft | 3 kts | 209° |
| 2026-04-26 16:00 | 56.92380 | 23.97720 | 41 ft | 3 kts | 251° |
| 2026-04-26 16:01 | 56.92385 | 23.97763 | 40 ft | 3 kts | 269° |
| 2026-04-26 16:01 | 56.92384 | 23.97807 | 40 ft | 3 kts | 275° |
| 2026-04-26 16:01 | 56.92383 | 23.97828 | 40 ft | 0 kts | 275° |
| 2026-04-26 16:02 | 56.92385 | 23.97791 | 40 ft | 10 kts | 275° |
| 2026-04-26 16:02 | 56.92391 | 23.97689 | 43 ft | 13 kts | 276° |
| 2026-04-26 16:03 | 56.92374 | 23.97521 | 43 ft | 9 kts | 195° |
| 2026-04-26 16:03 | 56.92319 | 23.97496 | 44 ft | 8 kts | 189° |
| 2026-04-26 16:03 | 56.92235 | 23.97477 | 44 ft | 18 kts | 185° |
| 2026-04-26 16:03 | 56.92104 | 23.97457 | 44 ft | 19 kts | 185° |
| 2026-04-26 16:04 | 56.91976 | 23.97439 | 44 ft | 18 kts | 184° |
| 2026-04-26 16:04 | 56.91853 | 23.97424 | 44 ft | 17 kts | 186° |
| 2026-04-26 16:04 | 56.91734 | 23.97405 | 44 ft | 17 kts | 186° |
| 2026-04-26 16:04 | 56.91620 | 23.97386 | 44 ft | 16 kts | 184° |
| 2026-04-26 16:05 | 56.91509 | 23.97370 | 44 ft | 16 kts | 185° |
| 2026-04-26 16:05 | 56.91399 | 23.97350 | 44 ft | 16 kts | 186° |
| 2026-04-26 16:05 | 56.91313 | 23.97240 | 43 ft | 16 kts | 229° |
| 2026-04-26 16:05 | 56.91274 | 23.97141 | 44 ft | 0 kts | 244° |
| 2026-04-26 16:06 | 56.91259 | 23.97017 | 45 ft | 23 kts | 278° |
| 2026-04-26 16:06 | 56.91370 | 23.96953 | 45 ft | 20 kts | 2° |
| 2026-04-26 16:06 | 56.91678 | 23.97000 | 43 ft | 79 kts | 5° |
| 2026-04-26 16:06 | 56.92435 | 23.97126 | 45 ft | 136 kts | 5° |
| 2026-04-26 16:07 | 56.93514 | 23.97278 | 225 ft | 161 kts | 3° |
| 2026-04-26 16:07 | 56.94605 | 23.97432 | 914 ft | 157 kts | 4° |
| 2026-04-26 16:07 | 56.95691 | 23.97610 | 1540 ft | 154 kts | 5° |
| 2026-04-26 16:07 | 56.96756 | 23.97782 | 2139 ft | 155 kts | 4° |
| 2026-04-26 16:08 | 56.97833 | 23.97957 | 2721 ft | 155 kts | 5° |
| 2026-04-26 16:08 | 56.98547 | 23.98077 | 3050 ft | 156 kts | 4° |
| 2026-04-26 16:08 | 57.00096 | 23.98334 | 3413 ft | 181 kts | 5° |
| 2026-04-26 16:08 | 57.01423 | 23.98561 | 3572 ft | 202 kts | 5° |
| 2026-04-26 16:09 | 57.02893 | 23.98814 | 3699 ft | 223 kts | 5° |
| 2026-04-26 16:09 | 57.04527 | 23.99091 | 3874 ft | 250 kts | 4° |
| 2026-04-26 16:09 | 57.06293 | 23.98715 | 4388 ft | 263 kts | 334° |
| 2026-04-26 16:09 | 57.07673 | 23.96536 | 5150 ft | 267 kts | 304° |
| 2026-04-26 16:10 | 57.08605 | 23.93566 | 6002 ft | 270 kts | 296° |
| 2026-04-26 16:10 | 57.09395 | 23.90415 | 6829 ft | 273 kts | 293° |
| 2026-04-26 16:10 | 57.10139 | 23.87221 | 7772 ft | 269 kts | 294° |
| 2026-04-26 16:10 | 57.10828 | 23.84020 | 8678 ft | 271 kts | 286° |
| 2026-04-26 16:11 | 57.10928 | 23.80534 | 9440 ft | 280 kts | 265° |
| 2026-04-26 16:11 | 57.10223 | 23.77102 | 10108 ft | 299 kts | 251° |
| 2026-04-26 16:11 | 57.09248 | 23.73557 | 10340 ft | 323 kts | 249° |
| 2026-04-26 16:11 | 57.08183 | 23.69810 | 10528 ft | 346 kts | 248° |
| 2026-04-26 16:12 | 57.07031 | 23.65822 | 10954 ft | 358 kts | 248° |
| 2026-04-26 16:12 | 57.05848 | 23.61760 | 11658 ft | 362 kts | 247° |
| 2026-04-26 16:12 | 57.03456 | 23.53530 | 13136 ft | 368 kts | 247° |
| 2026-04-26 16:13 | 57.02251 | 23.49348 | 13826 ft | 372 kts | 247° |
| 2026-04-26 16:13 | 57.01037 | 23.45124 | 14505 ft | 376 kts | 248° |
| 2026-04-26 16:13 | 56.99815 | 23.40868 | 15149 ft | 379 kts | 248° |
| 2026-04-26 16:13 | 56.98577 | 23.36567 | 15755 ft | 383 kts | 247° |
| 2026-04-26 16:14 | 56.97328 | 23.32229 | 16348 ft | 387 kts | 247° |
| 2026-04-26 16:14 | 56.96062 | 23.27852 | 16927 ft | 391 kts | 247° |
| 2026-04-26 16:14 | 56.93485 | 23.18981 | 18062 ft | 398 kts | 247° |
| 2026-04-26 16:15 | 56.92175 | 23.14489 | 18611 ft | 401 kts | 248° |
| 2026-04-26 16:15 | 56.90852 | 23.09962 | 19151 ft | 405 kts | 248° |
| 2026-04-26 16:15 | 56.89520 | 23.05407 | 19668 ft | 408 kts | 249° |
| 2026-04-26 16:16 | 56.86812 | 22.96166 | 20632 ft | 416 kts | 250° |
| 2026-04-26 16:16 | 56.85438 | 22.91484 | 21112 ft | 419 kts | 250° |
| 2026-04-26 16:16 | 56.84054 | 22.86769 | 21589 ft | 423 kts | 250° |
| 2026-04-26 16:16 | 56.82658 | 22.82028 | 22049 ft | 426 kts | 251° |
| 2026-04-26 16:17 | 56.81247 | 22.77265 | 22479 ft | 429 kts | 251° |
| 2026-04-26 16:17 | 56.79819 | 22.72459 | 22898 ft | 432 kts | 251° |
| 2026-04-26 16:17 | 56.78381 | 22.67624 | 23332 ft | 435 kts | 252° |
| 2026-04-26 16:17 | 56.76952 | 22.62821 | 23747 ft | 438 kts | 252° |
| 2026-04-26 16:18 | 56.75490 | 22.57923 | 24143 ft | 441 kts | 252° |
| 2026-04-26 16:18 | 56.72631 | 22.48009 | 24912 ft | 438 kts | 258° |
| 2026-04-26 16:19 | 56.71079 | 22.37582 | 25662 ft | 423 kts | 271° |
| 2026-04-26 16:19 | 56.70544 | 22.32301 | 26032 ft | 426 kts | 271° |
| 2026-04-26 16:19 | 56.69629 | 22.23457 | 26641 ft | 429 kts | 271° |
| 2026-04-26 16:20 | 56.68874 | 22.16300 | 27110 ft | 432 kts | 271° |
| 2026-04-26 16:20 | 56.67726 | 22.05522 | 27796 ft | 436 kts | 271° |
| 2026-04-26 16:20 | 56.67145 | 22.00112 | 28190 ft | 435 kts | 271° |
| 2026-04-26 16:21 | 56.66561 | 21.94722 | 28641 ft | 433 kts | 271° |
| 2026-04-26 16:21 | 56.65980 | 21.89365 | 29088 ft | 431 kts | 272° |
| 2026-04-26 16:21 | 56.65402 | 21.84027 | 29495 ft | 430 kts | 272° |
| 2026-04-26 16:21 | 56.64826 | 21.78707 | 29892 ft | 428 kts | 272° |
| 2026-04-26 16:22 | 56.64256 | 21.73472 | 30304 ft | 427 kts | 271° |
| 2026-04-26 16:22 | 56.63671 | 21.68117 | 30673 ft | 427 kts | 271° |
| 2026-04-26 16:22 | 56.63103 | 21.62898 | 30999 ft | 428 kts | 271° |
| 2026-04-26 16:22 | 56.62524 | 21.57597 | 31327 ft | 428 kts | 270° |
| 2026-04-26 16:23 | 56.61942 | 21.52289 | 31638 ft | 429 kts | 270° |
| 2026-04-26 16:23 | 56.61351 | 21.46974 | 31952 ft | 430 kts | 270° |
| 2026-04-26 16:23 | 56.60754 | 21.41652 | 32275 ft | 431 kts | 269° |
| 2026-04-26 16:23 | 56.60154 | 21.36323 | 32583 ft | 431 kts | 269° |
| 2026-04-26 16:24 | 56.59550 | 21.30996 | 32884 ft | 432 kts | 269° |
| 2026-04-26 16:24 | 56.58947 | 21.25661 | 33199 ft | 431 kts | 269° |
| 2026-04-26 16:24 | 56.58344 | 21.20325 | 33494 ft | 432 kts | 268° |
| 2026-04-26 16:24 | 56.57738 | 21.14985 | 33802 ft | 432 kts | 268° |
| 2026-04-26 16:25 | 56.57126 | 21.09655 | 34122 ft | 432 kts | 268° |
| 2026-04-26 16:25 | 56.56511 | 21.04328 | 34432 ft | 431 kts | 268° |
| 2026-04-26 16:25 | 56.55897 | 20.99009 | 34727 ft | 432 kts | 267° |
| 2026-04-26 16:25 | 56.55281 | 20.93677 | 35019 ft | 432 kts | 267° |
| 2026-04-26 16:26 | 56.54661 | 20.88353 | 35309 ft | 431 kts | 267° |
| 2026-04-26 16:26 | 56.54249 | 20.84836 | 35493 ft | 431 kts | 266° |
| 2026-04-26 16:26 | 56.53412 | 20.77714 | 35844 ft | 432 kts | 266° |
| 2026-04-26 16:26 | 56.52785 | 20.72389 | 36095 ft | 432 kts | 266° |
| 2026-04-26 16:27 | 56.52162 | 20.67135 | 36352 ft | 432 kts | 266° |
| 2026-04-26 16:27 | 56.51528 | 20.61812 | 36575 ft | 433 kts | 265° |
| 2026-04-26 16:27 | 56.50892 | 20.56475 | 36785 ft | 434 kts | 265° |
| 2026-04-26 16:27 | 56.50256 | 20.51149 | 37049 ft | 432 kts | 265° |
| 2026-04-26 16:28 | 56.49620 | 20.45840 | 37328 ft | 431 kts | 265° |
| 2026-04-26 16:28 | 56.48986 | 20.40561 | 37615 ft | 429 kts | 265° |
| 2026-04-26 16:28 | 56.48346 | 20.35284 | 37822 ft | 429 kts | 265° |
| 2026-04-26 16:28 | 56.47704 | 20.30009 | 38005 ft | 430 kts | 264° |
| 2026-04-26 16:29 | 56.47058 | 20.24719 | 38116 ft | 431 kts | 264° |
| 2026-04-26 16:29 | 56.46407 | 20.19409 | 38142 ft | 432 kts | 264° |
| 2026-04-26 16:29 | 56.45107 | 20.08828 | 38145 ft | 432 kts | 264° |
| 2026-04-26 16:30 | 56.43805 | 19.98215 | 38144 ft | 432 kts | 264° |
| 2026-04-26 16:30 | 56.42706 | 19.89418 | 38142 ft | 432 kts | 264° |
| 2026-04-26 16:31 | 56.41155 | 19.77156 | 38151 ft | 431 kts | 264° |
| 2026-04-26 16:31 | 56.39816 | 19.66613 | 38152 ft | 431 kts | 264° |
| 2026-04-26 16:32 | 56.38687 | 19.57778 | 38154 ft | 432 kts | 264° |
| 2026-04-26 16:32 | 56.37329 | 19.47217 | 38162 ft | 431 kts | 264° |
| 2026-04-26 16:33 | 56.35969 | 19.36695 | 38164 ft | 431 kts | 264° |
| 2026-04-26 16:33 | 56.34611 | 19.26248 | 38167 ft | 431 kts | 264° |
| 2026-04-26 16:34 | 56.33229 | 19.15743 | 38168 ft | 430 kts | 264° |
| 2026-04-26 16:34 | 56.31837 | 19.05267 | 38171 ft | 430 kts | 264° |
| 2026-04-26 16:35 | 56.30443 | 18.94799 | 38177 ft | 429 kts | 264° |
| 2026-04-26 16:35 | 56.29089 | 18.84347 | 38184 ft | 427 kts | 265° |
| 2026-04-26 16:36 | 56.27942 | 18.73902 | 38185 ft | 424 kts | 266° |
| 2026-04-26 16:36 | 56.26848 | 18.63496 | 38184 ft | 423 kts | 266° |
| 2026-04-26 16:37 | 56.25711 | 18.53126 | 38196 ft | 422 kts | 266° |
| 2026-04-26 16:37 | 56.24529 | 18.42799 | 38198 ft | 421 kts | 266° |
| 2026-04-26 16:38 | 56.23341 | 18.32497 | 38200 ft | 420 kts | 266° |
| 2026-04-26 16:38 | 56.21655 | 18.22333 | 38201 ft | 427 kts | 258° |
| 2026-04-26 16:39 | 56.19638 | 18.12281 | 38202 ft | 427 kts | 258° |
| 2026-04-26 16:39 | 56.17628 | 18.02254 | 38201 ft | 427 kts | 258° |
| 2026-04-26 16:40 | 56.15617 | 17.92241 | 38202 ft | 427 kts | 258° |
| 2026-04-26 16:40 | 56.13605 | 17.82303 | 38207 ft | 426 kts | 258° |
| 2026-04-26 16:41 | 56.11571 | 17.72318 | 38212 ft | 426 kts | 258° |
| 2026-04-26 16:41 | 56.09522 | 17.62351 | 38207 ft | 426 kts | 258° |
| 2026-04-26 16:42 | 56.07470 | 17.52396 | 38210 ft | 426 kts | 258° |
| 2026-04-26 16:42 | 56.05413 | 17.42456 | 38209 ft | 426 kts | 258° |
| 2026-04-26 16:43 | 56.03349 | 17.32527 | 38217 ft | 425 kts | 258° |
| 2026-04-26 16:43 | 56.01282 | 17.22620 | 38217 ft | 425 kts | 258° |
| 2026-04-26 16:44 | 55.99204 | 17.12731 | 38220 ft | 425 kts | 257° |
| 2026-04-26 16:44 | 55.97122 | 17.02870 | 38225 ft | 423 kts | 257° |
| 2026-04-26 16:45 | 55.95046 | 16.93075 | 38227 ft | 421 kts | 257° |
| 2026-04-26 16:45 | 55.92966 | 16.83317 | 38219 ft | 420 kts | 257° |
| 2026-04-26 16:46 | 55.90883 | 16.73605 | 38224 ft | 419 kts | 257° |
| 2026-04-26 16:46 | 55.88801 | 16.63923 | 38217 ft | 418 kts | 257° |
| 2026-04-26 16:47 | 55.86732 | 16.54345 | 38227 ft | 417 kts | 257° |
| 2026-04-26 16:47 | 55.84650 | 16.44727 | 38227 ft | 416 kts | 257° |
| 2026-04-26 16:48 | 55.82561 | 16.35129 | 38227 ft | 416 kts | 257° |
| 2026-04-26 16:48 | 55.80467 | 16.25560 | 38227 ft | 415 kts | 257° |
| 2026-04-26 16:49 | 55.78354 | 16.16004 | 38220 ft | 415 kts | 257° |
| 2026-04-26 16:49 | 55.76239 | 16.06476 | 38217 ft | 414 kts | 257° |
| 2026-04-26 16:50 | 55.74125 | 15.96962 | 38223 ft | 415 kts | 257° |
| 2026-04-26 16:50 | 55.72005 | 15.87436 | 38223 ft | 415 kts | 257° |
| 2026-04-26 16:51 | 55.69881 | 15.77921 | 38229 ft | 415 kts | 256° |
| 2026-04-26 16:51 | 55.67735 | 15.68389 | 38242 ft | 418 kts | 256° |
| 2026-04-26 16:52 | 55.65934 | 15.60438 | 38244 ft | 418 kts | 256° |
| 2026-04-26 16:52 | 55.63402 | 15.49309 | 38247 ft | 416 kts | 256° |
| 2026-04-26 16:53 | 55.61237 | 15.39831 | 38244 ft | 415 kts | 256° |
| 2026-04-26 16:53 | 55.59069 | 15.30369 | 38246 ft | 415 kts | 255° |
| 2026-04-26 16:54 | 55.56899 | 15.20926 | 38251 ft | 414 kts | 255° |
| 2026-04-26 16:54 | 55.54734 | 15.11573 | 38255 ft | 414 kts | 255° |
| 2026-04-26 16:55 | 55.52548 | 15.02187 | 38262 ft | 413 kts | 255° |
| 2026-04-26 16:55 | 55.50366 | 14.92812 | 38264 ft | 413 kts | 255° |
| 2026-04-26 16:56 | 55.47073 | 14.78776 | 38265 ft | 413 kts | 254° |
| 2026-04-26 16:57 | 55.44870 | 14.69441 | 38266 ft | 413 kts | 254° |
| 2026-04-26 16:57 | 55.41555 | 14.55457 | 38265 ft | 412 kts | 254° |
| 2026-04-26 16:58 | 55.39709 | 14.47713 | 38263 ft | 413 kts | 254° |
| 2026-04-26 16:59 | 55.35988 | 14.32176 | 38262 ft | 413 kts | 254° |
| 2026-04-26 17:00 | 55.31487 | 14.13576 | 38267 ft | 414 kts | 253° |
| 2026-04-26 17:00 | 55.28093 | 13.99616 | 38273 ft | 415 kts | 253° |
| 2026-04-26 17:01 | 55.25816 | 13.90319 | 38278 ft | 415 kts | 253° |
| 2026-04-26 17:01 | 55.23529 | 13.81027 | 38282 ft | 415 kts | 252° |
| 2026-04-26 17:02 | 55.21234 | 13.71746 | 38287 ft | 416 kts | 252° |
| 2026-04-26 17:02 | 55.18951 | 13.62521 | 38295 ft | 416 kts | 252° |
| 2026-04-26 17:03 | 55.16647 | 13.53247 | 38296 ft | 416 kts | 252° |
| 2026-04-26 17:03 | 55.14334 | 13.43985 | 38297 ft | 416 kts | 252° |
| 2026-04-26 17:04 | 55.12016 | 13.34739 | 38296 ft | 415 kts | 252° |
| 2026-04-26 17:04 | 55.09461 | 13.25661 | 38287 ft | 419 kts | 246° |
| 2026-04-26 17:05 | 55.06524 | 13.16866 | 38285 ft | 420 kts | 245° |
| 2026-04-26 17:05 | 55.03531 | 13.08129 | 38293 ft | 419 kts | 245° |
| 2026-04-26 17:06 | 55.00559 | 12.99384 | 38294 ft | 419 kts | 245° |
| 2026-04-26 17:06 | 54.97605 | 12.90636 | 38295 ft | 419 kts | 245° |
| 2026-04-26 17:07 | 54.94646 | 12.81903 | 38299 ft | 419 kts | 245° |
| 2026-04-26 17:07 | 54.91673 | 12.73197 | 38299 ft | 418 kts | 245° |
| 2026-04-26 17:08 | 54.88702 | 12.64513 | 38300 ft | 418 kts | 245° |
| 2026-04-26 17:08 | 54.85744 | 12.55872 | 38300 ft | 418 kts | 245° |
| 2026-04-26 17:09 | 54.83247 | 12.48622 | 38297 ft | 418 kts | 244° |
| 2026-04-26 17:09 | 54.79770 | 12.38583 | 38300 ft | 418 kts | 244° |
| 2026-04-26 17:10 | 54.76769 | 12.29965 | 38302 ft | 417 kts | 244° |
| 2026-04-26 17:10 | 54.73768 | 12.21351 | 38303 ft | 417 kts | 244° |
| 2026-04-26 17:11 | 54.70769 | 12.12783 | 38299 ft | 416 kts | 244° |
| 2026-04-26 17:11 | 54.67767 | 12.04222 | 38301 ft | 416 kts | 244° |
| 2026-04-26 17:12 | 54.63282 | 11.91476 | 38225 ft | 416 kts | 244° |
| 2026-04-26 17:13 | 54.60273 | 11.82978 | 37733 ft | 414 kts | 243° |
| 2026-04-26 17:13 | 54.58772 | 11.78746 | 37479 ft | 412 kts | 243° |
| 2026-04-26 17:13 | 54.55652 | 11.70653 | 36411 ft | 405 kts | 233° |
| 2026-04-26 17:14 | 54.53760 | 11.67079 | 35320 ft | 402 kts | 233° |
| 2026-04-26 17:14 | 54.49973 | 11.60109 | 33202 ft | 395 kts | 232° |
| 2026-04-26 17:14 | 54.48090 | 11.56665 | 32154 ft | 397 kts | 233° |
| 2026-04-26 17:15 | 54.44279 | 11.49636 | 30022 ft | 406 kts | 233° |
| 2026-04-26 17:15 | 54.42345 | 11.46058 | 28926 ft | 410 kts | 233° |
| 2026-04-26 17:15 | 54.40397 | 11.42457 | 27830 ft | 414 kts | 233° |
| 2026-04-26 17:16 | 54.38432 | 11.38828 | 26722 ft | 417 kts | 232° |
| 2026-04-26 17:16 | 54.36443 | 11.35164 | 25606 ft | 421 kts | 232° |
| 2026-04-26 17:16 | 54.34437 | 11.31479 | 24477 ft | 425 kts | 232° |
| 2026-04-26 17:16 | 54.32408 | 11.27768 | 23339 ft | 426 kts | 232° |
| 2026-04-26 17:17 | 54.30391 | 11.24092 | 22134 ft | 420 kts | 232° |
| 2026-04-26 17:17 | 54.28391 | 11.20453 | 20246 ft | 419 kts | 232° |
| 2026-04-26 17:17 | 54.26396 | 11.16822 | 18431 ft | 418 kts | 232° |
| 2026-04-26 17:17 | 54.24404 | 11.13193 | 17269 ft | 419 kts | 232° |
| 2026-04-26 17:18 | 54.22442 | 11.09615 | 16275 ft | 417 kts | 232° |
| 2026-04-26 17:18 | 54.20461 | 11.06015 | 15268 ft | 413 kts | 231° |
| 2026-04-26 17:18 | 54.18496 | 11.02455 | 14267 ft | 409 kts | 231° |
| 2026-04-26 17:18 | 54.16558 | 10.98954 | 13249 ft | 404 kts | 231° |
| 2026-04-26 17:19 | 54.12801 | 10.92183 | 11595 ft | 368 kts | 231° |
| 2026-04-26 17:19 | 54.11658 | 10.90136 | 11273 ft | 356 kts | 231° |
| 2026-04-26 17:19 | 54.09969 | 10.87098 | 10214 ft | 348 kts | 230° |
| 2026-04-26 17:20 | 54.08360 | 10.84212 | 9938 ft | 328 kts | 230° |
| 2026-04-26 17:20 | 54.07296 | 10.82299 | 9690 ft | 332 kts | 230° |
| 2026-04-26 17:20 | 54.05204 | 10.78531 | 9043 ft | 328 kts | 229° |
| 2026-04-26 17:20 | 54.03666 | 10.75775 | 8882 ft | 313 kts | 229° |
| 2026-04-26 17:21 | 54.02195 | 10.73146 | 8757 ft | 299 kts | 229° |
| 2026-04-26 17:21 | 54.00802 | 10.70661 | 8651 ft | 286 kts | 229° |
| 2026-04-26 17:21 | 53.99459 | 10.68266 | 8536 ft | 275 kts | 229° |
| 2026-04-26 17:21 | 53.98150 | 10.65928 | 8414 ft | 272 kts | 229° |
| 2026-04-26 17:22 | 53.96852 | 10.63609 | 8287 ft | 270 kts | 229° |
| 2026-04-26 17:22 | 53.95568 | 10.61318 | 8173 ft | 269 kts | 229° |
| 2026-04-26 17:22 | 53.94271 | 10.59001 | 8067 ft | 268 kts | 229° |
| 2026-04-26 17:22 | 53.92986 | 10.56712 | 7936 ft | 267 kts | 229° |
| 2026-04-26 17:23 | 53.91702 | 10.54432 | 7810 ft | 267 kts | 229° |
| 2026-04-26 17:23 | 53.90419 | 10.52153 | 7464 ft | 266 kts | 229° |
| 2026-04-26 17:23 | 53.89141 | 10.49884 | 7040 ft | 265 kts | 228° |
| 2026-04-26 17:23 | 53.87866 | 10.47624 | 6608 ft | 265 kts | 228° |
| 2026-04-26 17:24 | 53.86597 | 10.45379 | 6235 ft | 263 kts | 228° |
| 2026-04-26 17:24 | 53.85334 | 10.43153 | 5923 ft | 258 kts | 226° |
| 2026-04-26 17:24 | 53.83980 | 10.41253 | 5794 ft | 248 kts | 222° |
| 2026-04-26 17:24 | 53.82752 | 10.39140 | 5678 ft | 253 kts | 231° |
| 2026-04-26 17:25 | 53.81626 | 10.36826 | 5485 ft | 255 kts | 232° |
| 2026-04-26 17:25 | 53.80511 | 10.34499 | 5166 ft | 254 kts | 232° |
| 2026-04-26 17:25 | 53.79389 | 10.32186 | 4832 ft | 254 kts | 231° |
| 2026-04-26 17:25 | 53.78290 | 10.29931 | 4500 ft | 248 kts | 231° |
| 2026-04-26 17:26 | 53.77204 | 10.27707 | 4178 ft | 244 kts | 231° |
| 2026-04-26 17:26 | 53.76125 | 10.25494 | 3845 ft | 242 kts | 231° |
| 2026-04-26 17:26 | 53.75060 | 10.23312 | 3528 ft | 238 kts | 231° |
| 2026-04-26 17:26 | 53.74034 | 10.21214 | 3242 ft | 225 kts | 230° |
| 2026-04-26 17:27 | 53.73061 | 10.19226 | 2933 ft | 214 kts | 230° |
| 2026-04-26 17:27 | 53.72147 | 10.17359 | 2675 ft | 198 kts | 231° |
| 2026-04-26 17:27 | 53.71296 | 10.15622 | 2408 ft | 187 kts | 231° |
| 2026-04-26 17:27 | 53.70489 | 10.13975 | 2153 ft | 178 kts | 231° |
| 2026-04-26 17:28 | 53.69717 | 10.12402 | 1930 ft | 170 kts | 232° |
| 2026-04-26 17:28 | 53.68979 | 10.10901 | 1714 ft | 161 kts | 232° |
| 2026-04-26 17:28 | 53.68296 | 10.09510 | 1518 ft | 148 kts | 233° |
| 2026-04-26 17:28 | 53.67647 | 10.08191 | 1316 ft | 144 kts | 233° |
| 2026-04-26 17:29 | 53.67009 | 10.06906 | 1137 ft | 143 kts | 233° |
| 2026-04-26 17:29 | 53.66591 | 10.06053 | 1006 ft | 144 kts | 233° |
| 2026-04-26 17:29 | 53.65725 | 10.04298 | 733 ft | 146 kts | 234° |
| 2026-04-26 17:29 | 53.65078 | 10.02976 | 539 ft | 146 kts | 234° |
| 2026-04-26 17:30 | 53.64438 | 10.01673 | 331 ft | 145 kts | 235° |
| 2026-04-26 17:30 | 53.63802 | 10.00387 | 155 ft | 141 kts | 236° |
| 2026-04-26 17:30 | 53.63188 | 9.99154 | 48 ft | 130 kts | 234° |
| 2026-04-26 17:30 | 53.62711 | 9.98151 | 42 ft | 81 kts | 229° |
| 2026-04-26 17:31 | 53.62515 | 9.97807 | 41 ft | 20 kts | 206° |
| 2026-04-26 17:31 | 53.62436 | 9.97882 | 45 ft | 11 kts | 103° |
| 2026-04-26 17:31 | 53.62438 | 9.97990 | 47 ft | 11 kts | 77° |
| 2026-04-26 17:31 | 53.62503 | 9.98174 | 46 ft | 22 kts | 51° |
| 2026-04-26 17:32 | 53.62597 | 9.98365 | 47 ft | 21 kts | 49° |
| 2026-04-26 17:32 | 53.62688 | 9.98547 | 47 ft | 20 kts | 50° |
| 2026-04-26 17:32 | 53.62775 | 9.98725 | 47 ft | 19 kts | 50° |
| 2026-04-26 17:32 | 53.62861 | 9.98899 | 47 ft | 19 kts | 50° |
| 2026-04-26 17:33 | 53.62945 | 9.99070 | 47 ft | 19 kts | 50° |
| 2026-04-26 17:33 | 53.63028 | 9.99241 | 47 ft | 19 kts | 51° |
| 2026-04-26 17:33 | 53.63103 | 9.99416 | 46 ft | 19 kts | 53° |
| 2026-04-26 17:34 | 53.63259 | 9.99735 | 48 ft | 17 kts | 46° |
| 2026-04-26 17:34 | 53.63336 | 9.99881 | 49 ft | 16 kts | 51° |
| 2026-04-26 17:34 | 53.63402 | 10.00012 | 48 ft | 0 kts | 50° |
| 2026-04-26 17:35 | 53.63403 | 10.00014 | 47 ft | 2 kts | 50° |
| 2026-04-26 17:35 | 53.63420 | 10.00127 | 48 ft | 13 kts | 127° |
| 2026-04-26 17:35 | 53.63341 | 10.00162 | 48 ft | 11 kts | 175° |
| 2026-04-26 17:35 | 53.63275 | 10.00170 | 47 ft | 0 kts | 176° |
| 2026-04-26 17:36 | 53.63246 | 10.00174 | 48 ft | 9 kts | 176° |
| 2026-04-26 17:36 | 53.63202 | 10.00205 | 48 ft | 6 kts | 113° |
| 2026-04-26 17:36 | 53.63202 | 10.00252 | 48 ft | 0 kts | 88° |
| 2026-04-26 17:36 | 53.63202 | 10.00253 | 49 ft | 0 kts | 88° |
| 2026-04-26 17:37 | 53.63203 | 10.00290 | 48 ft | 2 kts | 87° |
| 2026-04-26 17:37 | 53.63203 | 10.00300 | 48 ft | 0 kts | 87° |
| 2026-04-26 17:37 | 53.63204 | 10.00304 | 48 ft | 1 kts | 86° |
| 2026-04-26 17:38 | 53.63204 | 10.00320 | 48 ft | 2 kts | 86° |
| 2026-04-26 17:38 | 53.63206 | 10.00354 | 48 ft | 0 kts | 86° |
| 2026-04-26 17:38 | 53.63206 | 10.00362 | 48 ft | 1 kts | 86° |